sensor_id;sensor_type;location;lat;lon;timestamp;P1;durP1;ratioP1;P2;durP2;ratioP2
11590;SDS011;5851;54.050;9.974;2023-07-22T00:02:10;6.10;;;4.53;;
11590;SDS011;5851;54.050;9.974;2023-07-22T00:04:37;5.00;;;4.50;;
11590;SDS011;5851;54.050;9.974;2023-07-22T00:07:04;6.50;;;4.90;;
11590;SDS011;5851;54.050;9.974;2023-07-22T00:09:32;5.37;;;4.37;;
11590;SDS011;5851;54.050;9.974;2023-07-22T00:12:01;7.00;;;4.90;;
11590;SDS011;5851;54.050;9.974;2023-07-22T00:14:28;6.33;;;4.67;;
11590;SDS011;5851;54.050;9.974;2023-07-22T00:16:55;6.20;;;4.43;;
11590;SDS011;5851;54.050;9.974;2023-07-22T00:19:22;6.53;;;4.67;;
11590;SDS011;5851;54.050;9.974;2023-07-22T00:21:49;5.53;;;4.40;;
11590;SDS011;5851;54.050;9.974;2023-07-22T00:24:17;4.97;;;4.43;;
11590;SDS011;5851;54.050;9.974;2023-07-22T00:26:44;6.50;;;4.40;;
11590;SDS011;5851;54.050;9.974;2023-07-22T00:29:12;4.33;;;3.93;;
11590;SDS011;5851;54.050;9.974;2023-07-22T00:31:39;5.33;;;3.93;;
11590;SDS011;5851;54.050;9.974;2023-07-22T00:34:06;7.10;;;4.53;;
11590;SDS011;5851;54.050;9.974;2023-07-22T00:36:34;5.97;;;4.43;;
11590;SDS011;5851;54.050;9.974;2023-07-22T00:39:01;6.83;;;4.83;;
11590;SDS011;5851;54.050;9.974;2023-07-22T00:41:28;6.43;;;4.67;;
11590;SDS011;5851;54.050;9.974;2023-07-22T00:43:55;6.03;;;4.60;;
11590;SDS011;5851;54.050;9.974;2023-07-22T00:46:23;8.83;;;4.90;;
11590;SDS011;5851;54.050;9.974;2023-07-22T00:48:50;5.97;;;4.20;;
11590;SDS011;5851;54.050;9.974;2023-07-22T00:51:17;5.23;;;4.60;;
11590;SDS011;5851;54.050;9.974;2023-07-22T00:53:45;5.40;;;4.33;;
11590;SDS011;5851;54.050;9.974;2023-07-22T00:56:12;7.37;;;4.50;;
11590;SDS011;5851;54.050;9.974;2023-07-22T00:58:39;5.00;;;3.90;;
11590;SDS011;5851;54.050;9.974;2023-07-22T01:01:06;4.60;;;3.73;;
11590;SDS011;5851;54.050;9.974;2023-07-22T01:03:34;4.30;;;3.70;;
11590;SDS011;5851;54.050;9.974;2023-07-22T01:06:01;3.30;;;3.00;;
11590;SDS011;5851;54.050;9.974;2023-07-22T01:08:29;4.23;;;3.30;;
11590;SDS011;5851;54.050;9.974;2023-07-22T01:10:55;5.63;;;3.30;;
11590;SDS011;5851;54.050;9.974;2023-07-22T01:13:22;3.77;;;3.20;;
11590;SDS011;5851;54.050;9.974;2023-07-22T01:15:49;4.57;;;3.23;;
11590;SDS011;5851;54.050;9.974;2023-07-22T01:18:16;4.10;;;2.90;;
11590;SDS011;5851;54.050;9.974;2023-07-22T01:20:44;4.10;;;3.07;;
11590;SDS011;5851;54.050;9.974;2023-07-22T01:23:14;4.37;;;2.80;;
11590;SDS011;5851;54.050;9.974;2023-07-22T01:25:41;3.20;;;2.90;;
11590;SDS011;5851;54.050;9.974;2023-07-22T01:28:09;2.97;;;2.63;;
11590;SDS011;5851;54.050;9.974;2023-07-22T01:30:36;3.20;;;2.70;;
11590;SDS011;5851;54.050;9.974;2023-07-22T01:33:04;2.60;;;2.40;;
11590;SDS011;5851;54.050;9.974;2023-07-22T01:35:31;3.70;;;2.80;;
11590;SDS011;5851;54.050;9.974;2023-07-22T01:37:58;3.97;;;2.70;;
11590;SDS011;5851;54.050;9.974;2023-07-22T01:40:26;2.70;;;2.50;;
11590;SDS011;5851;54.050;9.974;2023-07-22T01:42:53;3.87;;;2.83;;
11590;SDS011;5851;54.050;9.974;2023-07-22T01:45:20;3.23;;;2.90;;
11590;SDS011;5851;54.050;9.974;2023-07-22T01:47:47;2.60;;;2.40;;
11590;SDS011;5851;54.050;9.974;2023-07-22T01:50:14;3.20;;;2.73;;
11590;SDS011;5851;54.050;9.974;2023-07-22T01:52:43;3.63;;;2.80;;
11590;SDS011;5851;54.050;9.974;2023-07-22T01:55:11;2.73;;;2.53;;
11590;SDS011;5851;54.050;9.974;2023-07-22T01:57:39;3.00;;;2.43;;
11590;SDS011;5851;54.050;9.974;2023-07-22T02:00:08;2.93;;;2.70;;
11590;SDS011;5851;54.050;9.974;2023-07-22T02:02:36;2.50;;;2.30;;
11590;SDS011;5851;54.050;9.974;2023-07-22T02:05:03;2.47;;;2.27;;
11590;SDS011;5851;54.050;9.974;2023-07-22T02:07:31;2.63;;;2.43;;
11590;SDS011;5851;54.050;9.974;2023-07-22T02:09:58;2.50;;;2.30;;
11590;SDS011;5851;54.050;9.974;2023-07-22T02:12:25;2.80;;;2.13;;
11590;SDS011;5851;54.050;9.974;2023-07-22T02:14:53;2.40;;;2.20;;
11590;SDS011;5851;54.050;9.974;2023-07-22T02:17:20;4.20;;;2.50;;
11590;SDS011;5851;54.050;9.974;2023-07-22T02:19:48;4.87;;;2.47;;
11590;SDS011;5851;54.050;9.974;2023-07-22T02:22:15;2.50;;;2.30;;
11590;SDS011;5851;54.050;9.974;2023-07-22T02:24:42;4.20;;;2.30;;
11590;SDS011;5851;54.050;9.974;2023-07-22T02:27:10;2.67;;;2.10;;
11590;SDS011;5851;54.050;9.974;2023-07-22T02:29:36;3.03;;;2.17;;
11590;SDS011;5851;54.050;9.974;2023-07-22T02:32:05;3.63;;;2.60;;
11590;SDS011;5851;54.050;9.974;2023-07-22T02:34:33;3.80;;;2.30;;
11590;SDS011;5851;54.050;9.974;2023-07-22T02:37:00;3.63;;;2.20;;
11590;SDS011;5851;54.050;9.974;2023-07-22T02:39:27;4.23;;;1.97;;
11590;SDS011;5851;54.050;9.974;2023-07-22T02:41:54;3.70;;;2.30;;
11590;SDS011;5851;54.050;9.974;2023-07-22T02:44:21;3.93;;;2.43;;
11590;SDS011;5851;54.050;9.974;2023-07-22T02:46:47;2.80;;;2.10;;
11590;SDS011;5851;54.050;9.974;2023-07-22T02:49:16;3.47;;;2.20;;
11590;SDS011;5851;54.050;9.974;2023-07-22T02:51:43;3.97;;;2.00;;
11590;SDS011;5851;54.050;9.974;2023-07-22T02:54:09;3.40;;;2.00;;
11590;SDS011;5851;54.050;9.974;2023-07-22T02:56:36;5.23;;;2.30;;
11590;SDS011;5851;54.050;9.974;2023-07-22T02:59:04;2.87;;;1.90;;
11590;SDS011;5851;54.050;9.974;2023-07-22T03:01:31;4.57;;;2.10;;
11590;SDS011;5851;54.050;9.974;2023-07-22T03:03:58;4.80;;;2.40;;
11590;SDS011;5851;54.050;9.974;2023-07-22T03:06:26;3.30;;;2.20;;
11590;SDS011;5851;54.050;9.974;2023-07-22T03:08:54;4.97;;;2.27;;
11590;SDS011;5851;54.050;9.974;2023-07-22T03:11:22;2.87;;;2.00;;
11590;SDS011;5851;54.050;9.974;2023-07-22T03:13:50;2.10;;;1.93;;
11590;SDS011;5851;54.050;9.974;2023-07-22T03:16:17;3.13;;;2.27;;
11590;SDS011;5851;54.050;9.974;2023-07-22T03:18:44;3.03;;;2.20;;
11590;SDS011;5851;54.050;9.974;2023-07-22T03:21:11;3.23;;;2.20;;
11590;SDS011;5851;54.050;9.974;2023-07-22T03:23:39;3.60;;;2.27;;
11590;SDS011;5851;54.050;9.974;2023-07-22T03:26:06;3.90;;;2.37;;
11590;SDS011;5851;54.050;9.974;2023-07-22T03:28:33;3.47;;;2.50;;
11590;SDS011;5851;54.050;9.974;2023-07-22T03:31:00;2.50;;;2.10;;
11590;SDS011;5851;54.050;9.974;2023-07-22T03:33:27;5.10;;;2.33;;
11590;SDS011;5851;54.050;9.974;2023-07-22T03:35:54;3.73;;;2.40;;
11590;SDS011;5851;54.050;9.974;2023-07-22T03:38:21;3.40;;;2.30;;
11590;SDS011;5851;54.050;9.974;2023-07-22T03:40:49;3.33;;;2.30;;
11590;SDS011;5851;54.050;9.974;2023-07-22T03:43:18;4.53;;;2.63;;
11590;SDS011;5851;54.050;9.974;2023-07-22T03:45:44;4.07;;;2.67;;
11590;SDS011;5851;54.050;9.974;2023-07-22T03:48:11;3.60;;;2.57;;
11590;SDS011;5851;54.050;9.974;2023-07-22T03:50:38;4.43;;;2.20;;
11590;SDS011;5851;54.050;9.974;2023-07-22T03:53:05;3.13;;;2.53;;
11590;SDS011;5851;54.050;9.974;2023-07-22T03:55:32;3.67;;;2.37;;
11590;SDS011;5851;54.050;9.974;2023-07-22T03:58:00;2.93;;;2.50;;
11590;SDS011;5851;54.050;9.974;2023-07-22T04:00:27;4.20;;;2.63;;
11590;SDS011;5851;54.050;9.974;2023-07-22T04:02:54;3.37;;;2.47;;
11590;SDS011;5851;54.050;9.974;2023-07-22T04:05:21;3.93;;;2.47;;
11590;SDS011;5851;54.050;9.974;2023-07-22T04:07:48;4.93;;;2.83;;
11590;SDS011;5851;54.050;9.974;2023-07-22T04:10:15;6.00;;;2.47;;
11590;SDS011;5851;54.050;9.974;2023-07-22T04:12:42;5.80;;;3.10;;
11590;SDS011;5851;54.050;9.974;2023-07-22T04:15:10;4.43;;;3.07;;
11590;SDS011;5851;54.050;9.974;2023-07-22T04:17:37;6.03;;;3.27;;
11590;SDS011;5851;54.050;9.974;2023-07-22T04:20:05;4.53;;;2.80;;
11590;SDS011;5851;54.050;9.974;2023-07-22T04:22:34;3.83;;;2.93;;
11590;SDS011;5851;54.050;9.974;2023-07-22T04:25:01;4.27;;;3.27;;
11590;SDS011;5851;54.050;9.974;2023-07-22T04:27:28;6.87;;;3.87;;
11590;SDS011;5851;54.050;9.974;2023-07-22T04:29:54;4.77;;;3.30;;
11590;SDS011;5851;54.050;9.974;2023-07-22T04:32:23;5.40;;;3.40;;
11590;SDS011;5851;54.050;9.974;2023-07-22T04:34:50;5.13;;;3.33;;
11590;SDS011;5851;54.050;9.974;2023-07-22T04:37:17;4.77;;;3.60;;
11590;SDS011;5851;54.050;9.974;2023-07-22T04:39:46;4.70;;;3.60;;
11590;SDS011;5851;54.050;9.974;2023-07-22T04:42:14;6.50;;;3.60;;
11590;SDS011;5851;54.050;9.974;2023-07-22T04:44:41;6.57;;;3.60;;
11590;SDS011;5851;54.050;9.974;2023-07-22T04:47:09;4.87;;;3.50;;
11590;SDS011;5851;54.050;9.974;2023-07-22T04:49:37;5.53;;;3.40;;
11590;SDS011;5851;54.050;9.974;2023-07-22T04:52:05;4.80;;;3.60;;
11590;SDS011;5851;54.050;9.974;2023-07-22T04:54:32;4.10;;;3.00;;
11590;SDS011;5851;54.050;9.974;2023-07-22T04:56:59;3.63;;;3.10;;
11590;SDS011;5851;54.050;9.974;2023-07-22T04:59:27;4.90;;;3.30;;
11590;SDS011;5851;54.050;9.974;2023-07-22T05:01:54;3.87;;;3.03;;
11590;SDS011;5851;54.050;9.974;2023-07-22T05:04:21;3.93;;;2.90;;
11590;SDS011;5851;54.050;9.974;2023-07-22T05:06:50;6.10;;;3.20;;
11590;SDS011;5851;54.050;9.974;2023-07-22T05:09:16;4.83;;;3.00;;
11590;SDS011;5851;54.050;9.974;2023-07-22T05:11:43;3.97;;;3.13;;
11590;SDS011;5851;54.050;9.974;2023-07-22T05:14:10;3.90;;;2.90;;
11590;SDS011;5851;54.050;9.974;2023-07-22T05:16:37;4.13;;;2.97;;
11590;SDS011;5851;54.050;9.974;2023-07-22T05:19:04;4.47;;;2.73;;
11590;SDS011;5851;54.050;9.974;2023-07-22T05:21:33;4.57;;;2.70;;
11590;SDS011;5851;54.050;9.974;2023-07-22T05:24:01;3.13;;;2.83;;
11590;SDS011;5851;54.050;9.974;2023-07-22T05:26:28;11.43;;;3.30;;
11590;SDS011;5851;54.050;9.974;2023-07-22T05:28:56;7.67;;;3.27;;
11590;SDS011;5851;54.050;9.974;2023-07-22T05:31:23;4.07;;;3.03;;
11590;SDS011;5851;54.050;9.974;2023-07-22T05:33:50;5.33;;;3.20;;
11590;SDS011;5851;54.050;9.974;2023-07-22T05:36:16;5.07;;;3.03;;
11590;SDS011;5851;54.050;9.974;2023-07-22T05:38:43;3.40;;;3.10;;
11590;SDS011;5851;54.050;9.974;2023-07-22T05:41:12;3.47;;;2.77;;
11590;SDS011;5851;54.050;9.974;2023-07-22T05:43:39;3.20;;;2.80;;
11590;SDS011;5851;54.050;9.974;2023-07-22T05:46:05;4.33;;;2.93;;
11590;SDS011;5851;54.050;9.974;2023-07-22T05:48:32;3.47;;;2.90;;
11590;SDS011;5851;54.050;9.974;2023-07-22T05:50:59;6.23;;;3.10;;
11590;SDS011;5851;54.050;9.974;2023-07-22T05:53:26;4.77;;;2.97;;
11590;SDS011;5851;54.050;9.974;2023-07-22T05:55:53;5.50;;;3.33;;
11590;SDS011;5851;54.050;9.974;2023-07-22T05:58:21;3.90;;;2.70;;
11590;SDS011;5851;54.050;9.974;2023-07-22T06:00:48;4.67;;;3.10;;
11590;SDS011;5851;54.050;9.974;2023-07-22T06:03:16;4.20;;;3.37;;
11590;SDS011;5851;54.050;9.974;2023-07-22T06:05:46;6.03;;;3.63;;
11590;SDS011;5851;54.050;9.974;2023-07-22T06:08:13;4.30;;;3.20;;
11590;SDS011;5851;54.050;9.974;2023-07-22T06:10:40;6.10;;;3.00;;
11590;SDS011;5851;54.050;9.974;2023-07-22T06:13:07;3.80;;;2.80;;
11590;SDS011;5851;54.050;9.974;2023-07-22T06:15:35;3.67;;;2.60;;
11590;SDS011;5851;54.050;9.974;2023-07-22T06:18:02;5.20;;;2.70;;
11590;SDS011;5851;54.050;9.974;2023-07-22T06:20:32;4.77;;;3.20;;
11590;SDS011;5851;54.050;9.974;2023-07-22T06:23:00;3.80;;;2.80;;
11590;SDS011;5851;54.050;9.974;2023-07-22T06:25:27;3.10;;;2.40;;
11590;SDS011;5851;54.050;9.974;2023-07-22T06:27:54;3.90;;;2.70;;
11590;SDS011;5851;54.050;9.974;2023-07-22T06:30:21;3.90;;;2.50;;
11590;SDS011;5851;54.050;9.974;2023-07-22T06:32:49;4.47;;;2.70;;
11590;SDS011;5851;54.050;9.974;2023-07-22T06:35:16;3.30;;;2.50;;
11590;SDS011;5851;54.050;9.974;2023-07-22T06:37:43;6.63;;;2.70;;
11590;SDS011;5851;54.050;9.974;2023-07-22T06:40:10;3.57;;;2.80;;
11590;SDS011;5851;54.050;9.974;2023-07-22T06:42:37;3.77;;;2.50;;
11590;SDS011;5851;54.050;9.974;2023-07-22T06:45:04;4.70;;;2.73;;
11590;SDS011;5851;54.050;9.974;2023-07-22T06:47:32;3.93;;;2.70;;
11590;SDS011;5851;54.050;9.974;2023-07-22T06:50:01;3.17;;;2.40;;
11590;SDS011;5851;54.050;9.974;2023-07-22T06:52:29;4.67;;;2.27;;
11590;SDS011;5851;54.050;9.974;2023-07-22T06:54:56;3.13;;;2.43;;
11590;SDS011;5851;54.050;9.974;2023-07-22T06:57:23;3.27;;;2.50;;
11590;SDS011;5851;54.050;9.974;2023-07-22T06:59:51;5.70;;;2.40;;
11590;SDS011;5851;54.050;9.974;2023-07-22T07:02:19;3.70;;;2.50;;
11590;SDS011;5851;54.050;9.974;2023-07-22T07:04:46;2.90;;;2.17;;
11590;SDS011;5851;54.050;9.974;2023-07-22T07:07:14;4.03;;;2.57;;
11590;SDS011;5851;54.050;9.974;2023-07-22T07:09:41;2.73;;;2.27;;
11590;SDS011;5851;54.050;9.974;2023-07-22T07:12:08;2.40;;;2.07;;
11590;SDS011;5851;54.050;9.974;2023-07-22T07:14:35;2.47;;;2.10;;
11590;SDS011;5851;54.050;9.974;2023-07-22T07:17:02;6.27;;;2.40;;
11590;SDS011;5851;54.050;9.974;2023-07-22T07:19:29;3.50;;;2.40;;
11590;SDS011;5851;54.050;9.974;2023-07-22T07:21:56;3.63;;;2.10;;
11590;SDS011;5851;54.050;9.974;2023-07-22T07:24:25;2.57;;;1.87;;
11590;SDS011;5851;54.050;9.974;2023-07-22T07:26:52;2.77;;;2.27;;
11590;SDS011;5851;54.050;9.974;2023-07-22T07:29:19;4.80;;;2.20;;
11590;SDS011;5851;54.050;9.974;2023-07-22T07:31:46;3.60;;;2.20;;
11590;SDS011;5851;54.050;9.974;2023-07-22T07:34:13;1.70;;;1.50;;
11590;SDS011;5851;54.050;9.974;2023-07-22T07:36:40;4.30;;;1.80;;
11590;SDS011;5851;54.050;9.974;2023-07-22T07:39:07;1.57;;;1.43;;
11590;SDS011;5851;54.050;9.974;2023-07-22T07:41:35;1.73;;;1.53;;
11590;SDS011;5851;54.050;9.974;2023-07-22T07:44:03;5.27;;;2.10;;
11590;SDS011;5851;54.050;9.974;2023-07-22T07:46:30;2.37;;;1.93;;
11590;SDS011;5851;54.050;9.974;2023-07-22T07:48:58;3.17;;;1.83;;
11590;SDS011;5851;54.050;9.974;2023-07-22T07:51:27;1.90;;;1.70;;
11590;SDS011;5851;54.050;9.974;2023-07-22T07:53:55;3.20;;;1.80;;
11590;SDS011;5851;54.050;9.974;2023-07-22T07:56:24;1.90;;;1.63;;
11590;SDS011;5851;54.050;9.974;2023-07-22T07:58:53;2.10;;;1.50;;
11590;SDS011;5851;54.050;9.974;2023-07-22T08:01:20;3.50;;;1.93;;
11590;SDS011;5851;54.050;9.974;2023-07-22T08:03:47;4.73;;;1.90;;
11590;SDS011;5851;54.050;9.974;2023-07-22T08:06:14;1.87;;;1.70;;
11590;SDS011;5851;54.050;9.974;2023-07-22T08:08:41;3.87;;;1.80;;
11590;SDS011;5851;54.050;9.974;2023-07-22T08:11:09;2.00;;;1.77;;
11590;SDS011;5851;54.050;9.974;2023-07-22T08:13:38;2.00;;;1.73;;
11590;SDS011;5851;54.050;9.974;2023-07-22T08:16:07;2.00;;;1.73;;
11590;SDS011;5851;54.050;9.974;2023-07-22T08:18:35;2.00;;;1.50;;
11590;SDS011;5851;54.050;9.974;2023-07-22T08:21:03;2.20;;;1.40;;
11590;SDS011;5851;54.050;9.974;2023-07-22T08:23:32;3.80;;;1.20;;
11590;SDS011;5851;54.050;9.974;2023-07-22T08:25:59;5.63;;;1.60;;
11590;SDS011;5851;54.050;9.974;2023-07-22T08:28:25;2.40;;;1.40;;
11590;SDS011;5851;54.050;9.974;2023-07-22T08:30:54;2.40;;;1.30;;
11590;SDS011;5851;54.050;9.974;2023-07-22T08:33:23;2.80;;;1.50;;
11590;SDS011;5851;54.050;9.974;2023-07-22T08:35:50;1.77;;;1.27;;
11590;SDS011;5851;54.050;9.974;2023-07-22T08:38:17;1.67;;;1.20;;
11590;SDS011;5851;54.050;9.974;2023-07-22T08:40:44;1.60;;;1.40;;
11590;SDS011;5851;54.050;9.974;2023-07-22T08:43:15;3.37;;;1.40;;
11590;SDS011;5851;54.050;9.974;2023-07-22T08:45:45;2.57;;;1.40;;
11590;SDS011;5851;54.050;9.974;2023-07-22T08:48:15;1.87;;;1.57;;
11590;SDS011;5851;54.050;9.974;2023-07-22T08:50:45;1.50;;;1.40;;
11590;SDS011;5851;54.050;9.974;2023-07-22T08:53:16;1.40;;;1.30;;
11590;SDS011;5851;54.050;9.974;2023-07-22T08:55:44;4.83;;;1.40;;
11590;SDS011;5851;54.050;9.974;2023-07-22T08:58:12;1.37;;;1.30;;
11590;SDS011;5851;54.050;9.974;2023-07-22T09:00:40;2.80;;;1.30;;
11590;SDS011;5851;54.050;9.974;2023-07-22T09:03:07;1.37;;;1.27;;
11590;SDS011;5851;54.050;9.974;2023-07-22T09:05:35;1.50;;;1.40;;
11590;SDS011;5851;54.050;9.974;2023-07-22T09:08:04;1.47;;;1.37;;
11590;SDS011;5851;54.050;9.974;2023-07-22T09:10:33;1.50;;;1.40;;
11590;SDS011;5851;54.050;9.974;2023-07-22T09:13:01;1.63;;;1.30;;
11590;SDS011;5851;54.050;9.974;2023-07-22T09:15:28;1.40;;;1.30;;
11590;SDS011;5851;54.050;9.974;2023-07-22T09:17:56;1.90;;;1.40;;
11590;SDS011;5851;54.050;9.974;2023-07-22T09:20:22;2.80;;;1.57;;
11590;SDS011;5851;54.050;9.974;2023-07-22T09:22:50;2.43;;;1.70;;
11590;SDS011;5851;54.050;9.974;2023-07-22T09:25:19;1.53;;;1.43;;
11590;SDS011;5851;54.050;9.974;2023-07-22T09:27:47;1.80;;;1.70;;
11590;SDS011;5851;54.050;9.974;2023-07-22T09:30:21;3.30;;;1.60;;
11590;SDS011;5851;54.050;9.974;2023-07-22T09:32:49;2.10;;;1.90;;
11590;SDS011;5851;54.050;9.974;2023-07-22T09:35:16;3.17;;;1.90;;
11590;SDS011;5851;54.050;9.974;2023-07-22T09:37:43;2.97;;;1.63;;
11590;SDS011;5851;54.050;9.974;2023-07-22T09:40:14;1.83;;;1.73;;
11590;SDS011;5851;54.050;9.974;2023-07-22T09:42:44;3.03;;;2.00;;
11590;SDS011;5851;54.050;9.974;2023-07-22T09:45:12;4.70;;;1.80;;
11590;SDS011;5851;54.050;9.974;2023-07-22T09:47:39;2.37;;;1.90;;
11590;SDS011;5851;54.050;9.974;2023-07-22T09:50:08;2.53;;;1.40;;
11590;SDS011;5851;54.050;9.974;2023-07-22T09:52:40;1.60;;;1.50;;
11590;SDS011;5851;54.050;9.974;2023-07-22T09:55:12;1.70;;;1.60;;
11590;SDS011;5851;54.050;9.974;2023-07-22T09:57:41;2.40;;;1.50;;
11590;SDS011;5851;54.050;9.974;2023-07-22T10:00:12;3.23;;;1.60;;
11590;SDS011;5851;54.050;9.974;2023-07-22T10:02:41;2.80;;;1.70;;
11590;SDS011;5851;54.050;9.974;2023-07-22T10:05:12;2.97;;;1.63;;
11590;SDS011;5851;54.050;9.974;2023-07-22T10:07:42;2.40;;;1.40;;
11590;SDS011;5851;54.050;9.974;2023-07-22T10:10:11;2.03;;;1.70;;
11590;SDS011;5851;54.050;9.974;2023-07-22T10:12:39;2.80;;;1.60;;
11590;SDS011;5851;54.050;9.974;2023-07-22T10:15:09;2.33;;;1.60;;
11590;SDS011;5851;54.050;9.974;2023-07-22T10:17:37;2.33;;;1.60;;
11590;SDS011;5851;54.050;9.974;2023-07-22T10:20:05;5.57;;;1.80;;
11590;SDS011;5851;54.050;9.974;2023-07-22T10:22:35;2.27;;;1.70;;
11590;SDS011;5851;54.050;9.974;2023-07-22T10:25:03;1.63;;;1.30;;
11590;SDS011;5851;54.050;9.974;2023-07-22T10:27:31;1.70;;;1.50;;
11590;SDS011;5851;54.050;9.974;2023-07-22T10:29:59;2.03;;;1.60;;
11590;SDS011;5851;54.050;9.974;2023-07-22T10:32:32;1.63;;;1.43;;
11590;SDS011;5851;54.050;9.974;2023-07-22T10:35:01;1.57;;;1.47;;
11590;SDS011;5851;54.050;9.974;2023-07-22T10:37:31;1.63;;;1.45;;
11590;SDS011;5851;54.050;9.974;2023-07-22T10:39:59;1.95;;;1.52;;
11590;SDS011;5851;54.050;9.974;2023-07-22T10:42:27;1.60;;;1.40;;
11590;SDS011;5851;54.050;9.974;2023-07-22T10:44:59;2.63;;;1.70;;
11590;SDS011;5851;54.050;9.974;2023-07-22T10:47:34;2.83;;;1.70;;
11590;SDS011;5851;54.050;9.974;2023-07-22T10:50:06;2.00;;;1.50;;
11590;SDS011;5851;54.050;9.974;2023-07-22T10:52:38;2.57;;;1.73;;
11590;SDS011;5851;54.050;9.974;2023-07-22T10:55:14;3.00;;;1.73;;
11590;SDS011;5851;54.050;9.974;2023-07-22T10:57:48;3.22;;;1.90;;
11590;SDS011;5851;54.050;9.974;2023-07-22T11:00:19;1.83;;;1.53;;
11590;SDS011;5851;54.050;9.974;2023-07-22T11:02:48;2.83;;;1.73;;
11590;SDS011;5851;54.050;9.974;2023-07-22T11:05:48;2.60;;;1.60;;
11590;SDS011;5851;54.050;9.974;2023-07-22T11:08:23;2.80;;;1.63;;
11590;SDS011;5851;54.050;9.974;2023-07-22T11:11:02;1.60;;;1.50;;
11590;SDS011;5851;54.050;9.974;2023-07-22T11:13:29;1.77;;;1.40;;
11590;SDS011;5851;54.050;9.974;2023-07-22T11:16:00;3.07;;;1.50;;
11590;SDS011;5851;54.050;9.974;2023-07-22T11:18:38;4.73;;;1.70;;
11590;SDS011;5851;54.050;9.974;2023-07-22T11:21:07;1.63;;;1.53;;
11590;SDS011;5851;54.050;9.974;2023-07-22T11:23:35;4.10;;;1.60;;
11590;SDS011;5851;54.050;9.974;2023-07-22T11:26:02;3.00;;;1.90;;
11590;SDS011;5851;54.050;9.974;2023-07-22T11:28:30;2.00;;;1.60;;
11590;SDS011;5851;54.050;9.974;2023-07-22T11:30:57;1.70;;;1.60;;
11590;SDS011;5851;54.050;9.974;2023-07-22T11:33:24;2.10;;;1.90;;
11590;SDS011;5851;54.050;9.974;2023-07-22T11:35:52;2.30;;;1.80;;
11590;SDS011;5851;54.050;9.974;2023-07-22T11:38:19;2.50;;;1.67;;
11590;SDS011;5851;54.050;9.974;2023-07-22T11:40:46;2.90;;;1.67;;
11590;SDS011;5851;54.050;9.974;2023-07-22T11:43:14;3.23;;;1.90;;
11590;SDS011;5851;54.050;9.974;2023-07-22T11:45:41;2.27;;;1.93;;
11590;SDS011;5851;54.050;9.974;2023-07-22T11:48:11;4.73;;;1.77;;
11590;SDS011;5851;54.050;9.974;2023-07-22T11:50:38;3.33;;;2.20;;
11590;SDS011;5851;54.050;9.974;2023-07-22T11:53:07;4.63;;;1.83;;
11590;SDS011;5851;54.050;9.974;2023-07-22T11:55:36;2.53;;;1.90;;
11590;SDS011;5851;54.050;9.974;2023-07-22T11:58:04;1.90;;;1.80;;
11590;SDS011;5851;54.050;9.974;2023-07-22T12:00:32;2.87;;;1.90;;
11590;SDS011;5851;54.050;9.974;2023-07-22T12:03:04;2.00;;;1.60;;
11590;SDS011;5851;54.050;9.974;2023-07-22T12:05:31;1.70;;;1.60;;
11590;SDS011;5851;54.050;9.974;2023-07-22T12:08:03;2.77;;;1.70;;
11590;SDS011;5851;54.050;9.974;2023-07-22T12:10:33;2.50;;;1.63;;
11590;SDS011;5851;54.050;9.974;2023-07-22T12:13:00;1.80;;;1.60;;
11590;SDS011;5851;54.050;9.974;2023-07-22T12:15:27;2.77;;;1.87;;
11590;SDS011;5851;54.050;9.974;2023-07-22T12:17:55;1.57;;;1.47;;
11590;SDS011;5851;54.050;9.974;2023-07-22T12:20:23;1.97;;;1.60;;
11590;SDS011;5851;54.050;9.974;2023-07-22T12:22:50;1.93;;;1.63;;
11590;SDS011;5851;54.050;9.974;2023-07-22T12:25:17;1.70;;;1.60;;
11590;SDS011;5851;54.050;9.974;2023-07-22T12:27:46;2.30;;;2.00;;
11590;SDS011;5851;54.050;9.974;2023-07-22T12:30:13;3.13;;;1.93;;
11590;SDS011;5851;54.050;9.974;2023-07-22T12:32:40;2.43;;;2.07;;
11590;SDS011;5851;54.050;9.974;2023-07-22T12:35:07;3.30;;;2.00;;
11590;SDS011;5851;54.050;9.974;2023-07-22T12:37:35;2.80;;;2.50;;
11590;SDS011;5851;54.050;9.974;2023-07-22T12:40:02;2.47;;;2.27;;
11590;SDS011;5851;54.050;9.974;2023-07-22T12:42:31;2.30;;;2.07;;
11590;SDS011;5851;54.050;9.974;2023-07-22T12:44:59;2.40;;;2.20;;
11590;SDS011;5851;54.050;9.974;2023-07-22T12:47:26;2.70;;;2.17;;
11590;SDS011;5851;54.050;9.974;2023-07-22T12:49:53;2.37;;;2.17;;
11590;SDS011;5851;54.050;9.974;2023-07-22T12:52:19;3.47;;;2.40;;
11590;SDS011;5851;54.050;9.974;2023-07-22T12:54:46;2.40;;;2.13;;
11590;SDS011;5851;54.050;9.974;2023-07-22T12:57:13;2.92;;;2.13;;
11590;SDS011;5851;54.050;9.974;2023-07-22T12:59:40;2.50;;;2.07;;
11590;SDS011;5851;54.050;9.974;2023-07-22T13:02:08;4.57;;;2.77;;
11590;SDS011;5851;54.050;9.974;2023-07-22T13:04:35;3.37;;;2.60;;
11590;SDS011;5851;54.050;9.974;2023-07-22T13:07:02;3.17;;;2.70;;
11590;SDS011;5851;54.050;9.974;2023-07-22T13:09:29;3.20;;;2.83;;
11590;SDS011;5851;54.050;9.974;2023-07-22T13:11:56;2.90;;;2.50;;
11590;SDS011;5851;54.050;9.974;2023-07-22T13:14:23;3.30;;;3.00;;
11590;SDS011;5851;54.050;9.974;2023-07-22T13:16:49;5.03;;;3.23;;
11590;SDS011;5851;54.050;9.974;2023-07-22T13:19:18;5.07;;;3.80;;
11590;SDS011;5851;54.050;9.974;2023-07-22T13:21:45;5.80;;;3.60;;
11590;SDS011;5851;54.050;9.974;2023-07-22T13:24:11;4.73;;;3.83;;
11590;SDS011;5851;54.050;9.974;2023-07-22T13:26:39;7.80;;;4.20;;
11590;SDS011;5851;54.050;9.974;2023-07-22T13:29:06;6.97;;;4.33;;
11590;SDS011;5851;54.050;9.974;2023-07-22T13:31:34;5.27;;;4.30;;
11590;SDS011;5851;54.050;9.974;2023-07-22T13:34:00;8.43;;;4.53;;
11590;SDS011;5851;54.050;9.974;2023-07-22T13:36:29;6.93;;;4.40;;
11590;SDS011;5851;54.050;9.974;2023-07-22T13:38:55;4.90;;;4.07;;
11590;SDS011;5851;54.050;9.974;2023-07-22T13:41:22;5.83;;;3.90;;
11590;SDS011;5851;54.050;9.974;2023-07-22T13:43:49;5.17;;;3.60;;
11590;SDS011;5851;54.050;9.974;2023-07-22T13:46:18;5.23;;;3.77;;
11590;SDS011;5851;54.050;9.974;2023-07-22T13:48:44;5.47;;;4.30;;
11590;SDS011;5851;54.050;9.974;2023-07-22T13:51:11;5.87;;;3.90;;
11590;SDS011;5851;54.050;9.974;2023-07-22T13:53:40;6.67;;;4.20;;
11590;SDS011;5851;54.050;9.974;2023-07-22T13:56:06;4.37;;;3.40;;
11590;SDS011;5851;54.050;9.974;2023-07-22T13:58:33;5.43;;;4.10;;
11590;SDS011;5851;54.050;9.974;2023-07-22T14:01:00;4.50;;;3.80;;
11590;SDS011;5851;54.050;9.974;2023-07-22T14:03:28;4.67;;;3.97;;
11590;SDS011;5851;54.050;9.974;2023-07-22T14:05:55;3.77;;;3.40;;
11590;SDS011;5851;54.050;9.974;2023-07-22T14:08:22;4.37;;;3.53;;
11590;SDS011;5851;54.050;9.974;2023-07-22T14:10:51;4.50;;;3.47;;
11590;SDS011;5851;54.050;9.974;2023-07-22T14:13:18;5.43;;;3.73;;
11590;SDS011;5851;54.050;9.974;2023-07-22T14:15:44;3.90;;;3.10;;
11590;SDS011;5851;54.050;9.974;2023-07-22T14:18:11;4.50;;;3.50;;
11590;SDS011;5851;54.050;9.974;2023-07-22T14:20:42;4.97;;;3.50;;
11590;SDS011;5851;54.050;9.974;2023-07-22T14:23:09;3.50;;;2.90;;
11590;SDS011;5851;54.050;9.974;2023-07-22T14:25:36;3.20;;;2.90;;
11590;SDS011;5851;54.050;9.974;2023-07-22T14:28:04;4.97;;;3.60;;
11590;SDS011;5851;54.050;9.974;2023-07-22T14:30:31;4.53;;;3.50;;
11590;SDS011;5851;54.050;9.974;2023-07-22T14:32:58;4.13;;;3.60;;
11590;SDS011;5851;54.050;9.974;2023-07-22T14:35:25;5.87;;;4.10;;
11590;SDS011;5851;54.050;9.974;2023-07-22T14:37:52;3.83;;;3.10;;
11590;SDS011;5851;54.050;9.974;2023-07-22T14:40:19;5.27;;;3.93;;
11590;SDS011;5851;54.050;9.974;2023-07-22T14:42:46;4.83;;;3.63;;
11590;SDS011;5851;54.050;9.974;2023-07-22T14:45:14;3.80;;;3.50;;
11590;SDS011;5851;54.050;9.974;2023-07-22T14:47:41;4.87;;;3.87;;
11590;SDS011;5851;54.050;9.974;2023-07-22T14:50:08;5.03;;;3.73;;
11590;SDS011;5851;54.050;9.974;2023-07-22T14:52:36;4.17;;;3.73;;
11590;SDS011;5851;54.050;9.974;2023-07-22T14:55:03;4.80;;;4.07;;
11590;SDS011;5851;54.050;9.974;2023-07-22T14:57:33;6.07;;;3.77;;
11590;SDS011;5851;54.050;9.974;2023-07-22T15:00:00;4.67;;;3.87;;
11590;SDS011;5851;54.050;9.974;2023-07-22T15:02:28;5.33;;;3.93;;
11590;SDS011;5851;54.050;9.974;2023-07-22T15:04:55;5.07;;;4.10;;